sensor_id;sensor_type;location;lat;lon;timestamp;temperature;humidity
5276;DHT22;2661;50.786;12.728;2022-12-08T00:00:48;3.40;99.90
5276;DHT22;2661;50.786;12.728;2022-12-08T00:03:15;3.40;99.90
5276;DHT22;2661;50.786;12.728;2022-12-08T00:05:45;3.40;99.90
5276;DHT22;2661;50.786;12.728;2022-12-08T00:08:31;3.40;99.90
5276;DHT22;2661;50.786;12.728;2022-12-08T00:11:16;3.40;99.90
5276;DHT22;2661;50.786;12.728;2022-12-08T00:13:43;3.50;99.90
5276;DHT22;2661;50.786;12.728;2022-12-08T00:16:10;3.50;99.90
5276;DHT22;2661;50.786;12.728;2022-12-08T00:18:37;3.40;99.90
5276;DHT22;2661;50.786;12.728;2022-12-08T00:21:04;3.50;99.90
5276;DHT22;2661;50.786;12.728;2022-12-08T00:23:30;3.50;99.90
5276;DHT22;2661;50.786;12.728;2022-12-08T00:26:00;3.50;99.90
5276;DHT22;2661;50.786;12.728;2022-12-08T00:28:27;3.60;99.90
5276;DHT22;2661;50.786;12.728;2022-12-08T00:30:53;3.60;99.90
5276;DHT22;2661;50.786;12.728;2022-12-08T00:33:20;3.50;99.90
5276;DHT22;2661;50.786;12.728;2022-12-08T00:35:46;3.40;99.90
5276;DHT22;2661;50.786;12.728;2022-12-08T00:38:13;3.40;99.90
5276;DHT22;2661;50.786;12.728;2022-12-08T00:40:46;3.40;99.90
5276;DHT22;2661;50.786;12.728;2022-12-08T00:43:12;3.40;99.90
5276;DHT22;2661;50.786;12.728;2022-12-08T00:45:39;3.40;99.90
5276;DHT22;2661;50.786;12.728;2022-12-08T00:48:06;3.40;99.90
5276;DHT22;2661;50.786;12.728;2022-12-08T00:50:32;3.40;99.90
5276;DHT22;2661;50.786;12.728;2022-12-08T00:52:59;3.50;99.90
5276;DHT22;2661;50.786;12.728;2022-12-08T00:55:26;3.50;99.90
5276;DHT22;2661;50.786;12.728;2022-12-08T00:57:52;3.40;99.90
5276;DHT22;2661;50.786;12.728;2022-12-08T01:00:19;3.50;99.90
5276;DHT22;2661;50.786;12.728;2022-12-08T01:02:45;3.50;99.90
5276;DHT22;2661;50.786;12.728;2022-12-08T01:05:12;3.50;99.90
5276;DHT22;2661;50.786;12.728;2022-12-08T01:07:39;3.40;99.90
5276;DHT22;2661;50.786;12.728;2022-12-08T01:10:05;3.40;99.90
5276;DHT22;2661;50.786;12.728;2022-12-08T01:12:32;3.40;99.90
5276;DHT22;2661;50.786;12.728;2022-12-08T01:14:59;3.40;99.90
5276;DHT22;2661;50.786;12.728;2022-12-08T01:17:28;3.40;99.90
5276;DHT22;2661;50.786;12.728;2022-12-08T01:19:54;3.30;99.90
5276;DHT22;2661;50.786;12.728;2022-12-08T01:22:21;3.40;99.90
5276;DHT22;2661;50.786;12.728;2022-12-08T01:24:47;3.50;99.90
5276;DHT22;2661;50.786;12.728;2022-12-08T01:27:14;3.50;99.90
5276;DHT22;2661;50.786;12.728;2022-12-08T01:29:41;3.50;99.90
5276;DHT22;2661;50.786;12.728;2022-12-08T01:32:08;3.50;99.90
5276;DHT22;2661;50.786;12.728;2022-12-08T01:34:34;3.40;99.90
5276;DHT22;2661;50.786;12.728;2022-12-08T01:37:01;3.40;99.90
5276;DHT22;2661;50.786;12.728;2022-12-08T01:39:27;3.40;99.90
5276;DHT22;2661;50.786;12.728;2022-12-08T01:41:55;3.50;99.90
5276;DHT22;2661;50.786;12.728;2022-12-08T01:46:48;3.50;99.90
5276;DHT22;2661;50.786;12.728;2022-12-08T01:49:16;3.50;99.90
5276;DHT22;2661;50.786;12.728;2022-12-08T01:52:04;3.50;99.90
5276;DHT22;2661;50.786;12.728;2022-12-08T01:54:33;3.50;99.90
5276;DHT22;2661;50.786;12.728;2022-12-08T01:57:06;3.50;99.90
5276;DHT22;2661;50.786;12.728;2022-12-08T01:59:34;3.50;99.90
5276;DHT22;2661;50.786;12.728;2022-12-08T02:02:01;3.60;99.90
5276;DHT22;2661;50.786;12.728;2022-12-08T02:04:28;3.60;99.90
5276;DHT22;2661;50.786;12.728;2022-12-08T02:06:55;3.60;99.90
5276;DHT22;2661;50.786;12.728;2022-12-08T02:09:21;3.50;99.90
5276;DHT22;2661;50.786;12.728;2022-12-08T02:11:55;3.50;99.90
5276;DHT22;2661;50.786;12.728;2022-12-08T02:14:23;3.50;99.90
5276;DHT22;2661;50.786;12.728;2022-12-08T02:19:22;3.40;99.90
5276;DHT22;2661;50.786;12.728;2022-12-08T02:22:04;3.50;99.90
5276;DHT22;2661;50.786;12.728;2022-12-08T02:24:36;3.40;99.90
5276;DHT22;2661;50.786;12.728;2022-12-08T02:27:15;3.30;99.90
5276;DHT22;2661;50.786;12.728;2022-12-08T02:34:44;3.40;99.90
5276;DHT22;2661;50.786;12.728;2022-12-08T02:37:16;3.40;99.90
5276;DHT22;2661;50.786;12.728;2022-12-08T02:42:20;3.40;99.90
5276;DHT22;2661;50.786;12.728;2022-12-08T02:44:51;3.40;99.90
5276;DHT22;2661;50.786;12.728;2022-12-08T02:47:21;3.50;99.90
5276;DHT22;2661;50.786;12.728;2022-12-08T02:49:48;3.40;99.90
5276;DHT22;2661;50.786;12.728;2022-12-08T02:54:49;3.50;99.90
5276;DHT22;2661;50.786;12.728;2022-12-08T03:02:40;3.60;99.90
5276;DHT22;2661;50.786;12.728;2022-12-08T03:05:12;3.60;99.90
5276;DHT22;2661;50.786;12.728;2022-12-08T03:07:48;3.60;99.90
5276;DHT22;2661;50.786;12.728;2022-12-08T03:10:21;3.60;99.90
5276;DHT22;2661;50.786;12.728;2022-12-08T03:12:49;3.50;99.90
5276;DHT22;2661;50.786;12.728;2022-12-08T03:15:17;3.50;99.90
5276;DHT22;2661;50.786;12.728;2022-12-08T03:17:45;3.40;99.90
5276;DHT22;2661;50.786;12.728;2022-12-08T03:20:15;3.50;99.90
5276;DHT22;2661;50.786;12.728;2022-12-08T03:22:42;3.50;99.90
5276;DHT22;2661;50.786;12.728;2022-12-08T03:25:09;3.50;99.90
5276;DHT22;2661;50.786;12.728;2022-12-08T03:27:38;3.40;99.90
5276;DHT22;2661;50.786;12.728;2022-12-08T03:30:05;3.40;99.90
5276;DHT22;2661;50.786;12.728;2022-12-08T03:32:34;3.50;99.90
5276;DHT22;2661;50.786;12.728;2022-12-08T03:35:07;3.40;99.90
5276;DHT22;2661;50.786;12.728;2022-12-08T03:37:35;3.40;99.90
5276;DHT22;2661;50.786;12.728;2022-12-08T03:40:02;3.30;99.90
5276;DHT22;2661;50.786;12.728;2022-12-08T03:42:29;3.20;99.90
5276;DHT22;2661;50.786;12.728;2022-12-08T03:44:56;3.20;99.90
5276;DHT22;2661;50.786;12.728;2022-12-08T03:47:22;3.20;99.90
5276;DHT22;2661;50.786;12.728;2022-12-08T03:49:49;3.20;99.90
5276;DHT22;2661;50.786;12.728;2022-12-08T03:52:15;3.20;99.90
5276;DHT22;2661;50.786;12.728;2022-12-08T03:54:42;3.10;99.90
5276;DHT22;2661;50.786;12.728;2022-12-08T03:57:08;3.10;99.90
5276;DHT22;2661;50.786;12.728;2022-12-08T03:59:35;3.20;99.90
5276;DHT22;2661;50.786;12.728;2022-12-08T04:02:02;3.20;99.90
5276;DHT22;2661;50.786;12.728;2022-12-08T04:04:28;3.20;99.90
5276;DHT22;2661;50.786;12.728;2022-12-08T04:06:55;3.10;99.90
5276;DHT22;2661;50.786;12.728;2022-12-08T04:09:22;3.10;99.90
5276;DHT22;2661;50.786;12.728;2022-12-08T04:11:48;3.10;99.90
5276;DHT22;2661;50.786;12.728;2022-12-08T04:14:15;3.10;99.90
5276;DHT22;2661;50.786;12.728;2022-12-08T04:16:41;3.10;99.90
5276;DHT22;2661;50.786;12.728;2022-12-08T04:19:08;3.20;99.90
5276;DHT22;2661;50.786;12.728;2022-12-08T04:21:34;3.10;99.90
5276;DHT22;2661;50.786;12.728;2022-12-08T04:24:01;3.20;99.90
5276;DHT22;2661;50.786;12.728;2022-12-08T04:26:28;3.10;99.90
5276;DHT22;2661;50.786;12.728;2022-12-08T04:28:54;3.20;99.90
5276;DHT22;2661;50.786;12.728;2022-12-08T04:31:21;3.20;99.90
5276;DHT22;2661;50.786;12.728;2022-12-08T04:33:48;3.40;99.90
5276;DHT22;2661;50.786;12.728;2022-12-08T04:36:14;3.40;99.90
5276;DHT22;2661;50.786;12.728;2022-12-08T04:38:41;3.40;99.90
5276;DHT22;2661;50.786;12.728;2022-12-08T04:41:07;3.40;99.90
5276;DHT22;2661;50.786;12.728;2022-12-08T04:43:34;3.40;99.90
5276;DHT22;2661;50.786;12.728;2022-12-08T04:46:01;3.30;99.90
5276;DHT22;2661;50.786;12.728;2022-12-08T04:48:27;3.30;99.90
5276;DHT22;2661;50.786;12.728;2022-12-08T04:50:54;3.30;99.90
5276;DHT22;2661;50.786;12.728;2022-12-08T04:53:20;3.30;99.90
5276;DHT22;2661;50.786;12.728;2022-12-08T04:55:47;3.20;99.90
5276;DHT22;2661;50.786;12.728;2022-12-08T04:58:16;3.30;99.90
5276;DHT22;2661;50.786;12.728;2022-12-08T05:00:43;3.40;99.90
5276;DHT22;2661;50.786;12.728;2022-12-08T05:03:09;3.30;99.90
5276;DHT22;2661;50.786;12.728;2022-12-08T05:05:36;3.40;99.90
5276;DHT22;2661;50.786;12.728;2022-12-08T05:08:03;3.30;99.90
5276;DHT22;2661;50.786;12.728;2022-12-08T05:10:30;3.30;99.90
5276;DHT22;2661;50.786;12.728;2022-12-08T05:12:57;3.30;99.90
5276;DHT22;2661;50.786;12.728;2022-12-08T05:15:24;3.20;99.90
5276;DHT22;2661;50.786;12.728;2022-12-08T05:17:51;3.10;99.90
5276;DHT22;2661;50.786;12.728;2022-12-08T05:20:17;3.10;99.90
5276;DHT22;2661;50.786;12.728;2022-12-08T05:22:44;3.10;99.90
5276;DHT22;2661;50.786;12.728;2022-12-08T05:25:11;3.20;99.90
5276;DHT22;2661;50.786;12.728;2022-12-08T05:27:37;3.20;99.90
5276;DHT22;2661;50.786;12.728;2022-12-08T05:30:04;3.20;99.90
5276;DHT22;2661;50.786;12.728;2022-12-08T05:32:31;3.20;99.90
5276;DHT22;2661;50.786;12.728;2022-12-08T05:34:58;3.20;99.90
5276;DHT22;2661;50.786;12.728;2022-12-08T05:37:25;3.30;99.90
5276;DHT22;2661;50.786;12.728;2022-12-08T05:39:51;3.40;99.90
5276;DHT22;2661;50.786;12.728;2022-12-08T05:42:18;3.40;99.90
5276;DHT22;2661;50.786;12.728;2022-12-08T05:44:50;3.40;99.90
5276;DHT22;2661;50.786;12.728;2022-12-08T05:47:16;3.30;99.90
5276;DHT22;2661;50.786;12.728;2022-12-08T05:49:43;3.30;99.90
5276;DHT22;2661;50.786;12.728;2022-12-08T05:52:10;3.40;99.90
5276;DHT22;2661;50.786;12.728;2022-12-08T05:54:36;3.40;99.90
5276;DHT22;2661;50.786;12.728;2022-12-08T05:57:03;3.30;99.90
5276;DHT22;2661;50.786;12.728;2022-12-08T05:59:30;3.40;99.90
5276;DHT22;2661;50.786;12.728;2022-12-08T06:01:56;3.40;99.90
5276;DHT22;2661;50.786;12.728;2022-12-08T06:04:23;3.40;99.90
5276;DHT22;2661;50.786;12.728;2022-12-08T06:06:50;3.40;99.90
5276;DHT22;2661;50.786;12.728;2022-12-08T06:09:16;3.40;99.90
5276;DHT22;2661;50.786;12.728;2022-12-08T06:11:43;3.30;99.90
5276;DHT22;2661;50.786;12.728;2022-12-08T06:14:11;3.40;99.90
5276;DHT22;2661;50.786;12.728;2022-12-08T06:16:38;3.40;99.90
5276;DHT22;2661;50.786;12.728;2022-12-08T06:19:05;3.40;99.90
5276;DHT22;2661;50.786;12.728;2022-12-08T06:21:31;3.30;99.90
5276;DHT22;2661;50.786;12.728;2022-12-08T06:23:58;3.30;99.90
5276;DHT22;2661;50.786;12.728;2022-12-08T06:26:24;3.40;99.90
5276;DHT22;2661;50.786;12.728;2022-12-08T06:28:51;3.40;99.90
5276;DHT22;2661;50.786;12.728;2022-12-08T06:31:22;3.60;99.90
5276;DHT22;2661;50.786;12.728;2022-12-08T06:33:49;3.50;99.90
5276;DHT22;2661;50.786;12.728;2022-12-08T06:36:17;3.40;99.90
5276;DHT22;2661;50.786;12.728;2022-12-08T06:38:43;3.30;99.90
5276;DHT22;2661;50.786;12.728;2022-12-08T06:41:11;3.20;99.90
5276;DHT22;2661;50.786;12.728;2022-12-08T06:43:38;3.10;99.90
5276;DHT22;2661;50.786;12.728;2022-12-08T06:46:05;3.20;99.90
5276;DHT22;2661;50.786;12.728;2022-12-08T06:48:33;3.20;99.90
5276;DHT22;2661;50.786;12.728;2022-12-08T06:51:06;3.20;99.90
5276;DHT22;2661;50.786;12.728;2022-12-08T06:53:33;3.20;99.90
5276;DHT22;2661;50.786;12.728;2022-12-08T06:55:59;3.20;99.90
5276;DHT22;2661;50.786;12.728;2022-12-08T06:58:26;3.20;99.90
5276;DHT22;2661;50.786;12.728;2022-12-08T07:00:53;3.20;99.90
5276;DHT22;2661;50.786;12.728;2022-12-08T07:03:19;3.20;99.90
5276;DHT22;2661;50.786;12.728;2022-12-08T07:05:46;3.20;99.90
5276;DHT22;2661;50.786;12.728;2022-12-08T07:08:13;3.20;99.90
5276;DHT22;2661;50.786;12.728;2022-12-08T07:10:39;3.10;99.90
5276;DHT22;2661;50.786;12.728;2022-12-08T07:13:06;3.10;99.90
5276;DHT22;2661;50.786;12.728;2022-12-08T07:15:32;3.10;99.90
5276;DHT22;2661;50.786;12.728;2022-12-08T07:17:59;3.10;99.90
5276;DHT22;2661;50.786;12.728;2022-12-08T07:20:26;3.10;99.90
5276;DHT22;2661;50.786;12.728;2022-12-08T07:22:53;3.20;99.90
5276;DHT22;2661;50.786;12.728;2022-12-08T07:25:19;3.20;99.90
5276;DHT22;2661;50.786;12.728;2022-12-08T07:27:46;3.30;99.90
5276;DHT22;2661;50.786;12.728;2022-12-08T07:30:13;3.30;99.90
5276;DHT22;2661;50.786;12.728;2022-12-08T07:32:40;3.30;99.90
5276;DHT22;2661;50.786;12.728;2022-12-08T07:35:07;3.40;99.90
5276;DHT22;2661;50.786;12.728;2022-12-08T07:37:34;3.40;99.90
5276;DHT22;2661;50.786;12.728;2022-12-08T07:40:00;3.40;99.90
5276;DHT22;2661;50.786;12.728;2022-12-08T07:42:27;3.40;99.90
5276;DHT22;2661;50.786;12.728;2022-12-08T07:44:57;3.50;99.90
5276;DHT22;2661;50.786;12.728;2022-12-08T07:47:24;3.50;99.90
5276;DHT22;2661;50.786;12.728;2022-12-08T07:49:51;3.50;99.90
5276;DHT22;2661;50.786;12.728;2022-12-08T07:52:17;3.40;99.90
5276;DHT22;2661;50.786;12.728;2022-12-08T07:54:44;3.50;99.90
5276;DHT22;2661;50.786;12.728;2022-12-08T07:57:10;3.50;99.90
5276;DHT22;2661;50.786;12.728;2022-12-08T07:59:37;3.50;99.90
5276;DHT22;2661;50.786;12.728;2022-12-08T08:02:03;3.60;99.90
5276;DHT22;2661;50.786;12.728;2022-12-08T08:04:49;3.60;99.90
5276;DHT22;2661;50.786;12.728;2022-12-08T08:07:16;3.70;99.90
5276;DHT22;2661;50.786;12.728;2022-12-08T08:09:43;3.80;99.90
5276;DHT22;2661;50.786;12.728;2022-12-08T08:12:10;3.90;99.90
5276;DHT22;2661;50.786;12.728;2022-12-08T08:14:57;3.90;99.90
5276;DHT22;2661;50.786;12.728;2022-12-08T08:17:24;4.00;99.90
5276;DHT22;2661;50.786;12.728;2022-12-08T08:19:51;3.90;99.90
5276;DHT22;2661;50.786;12.728;2022-12-08T08:22:17;4.10;99.90
5276;DHT22;2661;50.786;12.728;2022-12-08T08:24:44;4.00;99.90
5276;DHT22;2661;50.786;12.728;2022-12-08T08:27:11;4.10;99.90
5276;DHT22;2661;50.786;12.728;2022-12-08T08:29:37;4.10;99.90
5276;DHT22;2661;50.786;12.728;2022-12-08T08:32:04;4.10;99.90
5276;DHT22;2661;50.786;12.728;2022-12-08T08:34:30;4.10;99.90
5276;DHT22;2661;50.786;12.728;2022-12-08T08:36:57;4.20;99.90
5276;DHT22;2661;50.786;12.728;2022-12-08T08:39:24;4.10;99.90
5276;DHT22;2661;50.786;12.728;2022-12-08T08:41:50;4.10;99.90
5276;DHT22;2661;50.786;12.728;2022-12-08T08:44:17;4.10;99.90
5276;DHT22;2661;50.786;12.728;2022-12-08T08:46:44;4.10;99.90
5276;DHT22;2661;50.786;12.728;2022-12-08T08:49:10;4.10;99.90
5276;DHT22;2661;50.786;12.728;2022-12-08T08:51:37;4.20;99.90
5276;DHT22;2661;50.786;12.728;2022-12-08T08:54:03;4.20;99.90
5276;DHT22;2661;50.786;12.728;2022-12-08T08:56:30;4.20;99.90
5276;DHT22;2661;50.786;12.728;2022-12-08T08:58:57;4.20;99.90
5276;DHT22;2661;50.786;12.728;2022-12-08T09:01:24;4.10;99.90
5276;DHT22;2661;50.786;12.728;2022-12-08T09:03:51;4.20;99.90
5276;DHT22;2661;50.786;12.728;2022-12-08T09:06:18;4.20;99.90
5276;DHT22;2661;50.786;12.728;2022-12-08T09:08:45;4.20;99.90
5276;DHT22;2661;50.786;12.728;2022-12-08T09:11:12;4.20;99.90
5276;DHT22;2661;50.786;12.728;2022-12-08T09:13:39;4.20;99.90
5276;DHT22;2661;50.786;12.728;2022-12-08T09:16:06;4.10;99.90
5276;DHT22;2661;50.786;12.728;2022-12-08T09:18:33;4.20;99.90
5276;DHT22;2661;50.786;12.728;2022-12-08T09:21:07;4.30;99.90
5276;DHT22;2661;50.786;12.728;2022-12-08T09:23:34;4.20;99.90
5276;DHT22;2661;50.786;12.728;2022-12-08T09:26:02;4.20;99.90
5276;DHT22;2661;50.786;12.728;2022-12-08T09:28:28;4.20;99.90
5276;DHT22;2661;50.786;12.728;2022-12-08T09:30:55;4.30;99.90
5276;DHT22;2661;50.786;12.728;2022-12-08T09:33:22;4.30;99.90
5276;DHT22;2661;50.786;12.728;2022-12-08T09:35:48;4.30;99.90
5276;DHT22;2661;50.786;12.728;2022-12-08T09:38:15;4.30;99.90
5276;DHT22;2661;50.786;12.728;2022-12-08T09:40:49;4.30;99.90
5276;DHT22;2661;50.786;12.728;2022-12-08T09:45:55;4.20;99.90
5276;DHT22;2661;50.786;12.728;2022-12-08T09:48:22;4.20;99.90
5276;DHT22;2661;50.786;12.728;2022-12-08T09:50:56;4.20;99.90
5276;DHT22;2661;50.786;12.728;2022-12-08T09:53:24;4.20;99.90
5276;DHT22;2661;50.786;12.728;2022-12-08T09:56:02;4.20;99.90
5276;DHT22;2661;50.786;12.728;2022-12-08T10:01:15;4.20;99.90
5276;DHT22;2661;50.786;12.728;2022-12-08T10:03:42;4.40;99.90
5276;DHT22;2661;50.786;12.728;2022-12-08T10:08:44;4.50;99.90
5276;DHT22;2661;50.786;12.728;2022-12-08T10:11:14;4.40;99.90
5276;DHT22;2661;50.786;12.728;2022-12-08T10:16:14;4.50;99.90
5276;DHT22;2661;50.786;12.728;2022-12-08T10:18:54;4.60;99.90
5276;DHT22;2661;50.786;12.728;2022-12-08T10:21:23;4.70;99.90
5276;DHT22;2661;50.786;12.728;2022-12-08T10:23:54;4.70;99.90
5276;DHT22;2661;50.786;12.728;2022-12-08T10:26:22;4.80;99.90
5276;DHT22;2661;50.786;12.728;2022-12-08T10:28:48;4.80;99.90
5276;DHT22;2661;50.786;12.728;2022-12-08T10:31:16;4.70;99.90
5276;DHT22;2661;50.786;12.728;2022-12-08T10:33:43;4.70;99.90
5276;DHT22;2661;50.786;12.728;2022-12-08T10:36:12;4.70;99.90
5276;DHT22;2661;50.786;12.728;2022-12-08T10:38:39;4.80;99.90
5276;DHT22;2661;50.786;12.728;2022-12-08T10:41:10;4.90;99.90
5276;DHT22;2661;50.786;12.728;2022-12-08T10:43:41;5.00;99.90
5276;DHT22;2661;50.786;12.728;2022-12-08T10:46:13;5.00;99.90
5276;DHT22;2661;50.786;12.728;2022-12-08T10:49:26;5.00;99.90
5276;DHT22;2661;50.786;12.728;2022-12-08T10:54:00;4.90;99.90
5276;DHT22;2661;50.786;12.728;2022-12-08T10:56:28;4.80;99.90
5276;DHT22;2661;50.786;12.728;2022-12-08T10:59:05;4.80;99.90
5276;DHT22;2661;50.786;12.728;2022-12-08T11:01:37;4.80;99.90
5276;DHT22;2661;50.786;12.728;2022-12-08T11:04:09;4.80;99.90
5276;DHT22;2661;50.786;12.728;2022-12-08T11:06:37;4.70;99.90
5276;DHT22;2661;50.786;12.728;2022-12-08T11:09:08;4.70;99.90
5276;DHT22;2661;50.786;12.728;2022-12-08T11:14:31;4.60;99.90
5276;DHT22;2661;50.786;12.728;2022-12-08T11:17:02;4.50;99.90
5276;DHT22;2661;50.786;12.728;2022-12-08T11:19:30;4.60;99.90
5276;DHT22;2661;50.786;12.728;2022-12-08T11:21:57;4.70;99.90
5276;DHT22;2661;50.786;12.728;2022-12-08T11:24:24;4.70;99.90
5276;DHT22;2661;50.786;12.728;2022-12-08T11:29:25;4.60;99.90
5276;DHT22;2661;50.786;12.728;2022-12-08T11:31:53;4.70;99.90
5276;DHT22;2661;50.786;12.728;2022-12-08T11:34:30;4.70;99.90
5276;DHT22;2661;50.786;12.728;2022-12-08T11:36:58;4.80;99.90
5276;DHT22;2661;50.786;12.728;2022-12-08T11:39:25;4.90;99.90
5276;DHT22;2661;50.786;12.728;2022-12-08T11:41:53;4.90;99.90
5276;DHT22;2661;50.786;12.728;2022-12-08T11:44:29;4.90;99.90
5276;DHT22;2661;50.786;12.728;2022-12-08T11:47:01;5.00;99.90
5276;DHT22;2661;50.786;12.728;2022-12-08T11:49:33;4.90;99.90
5276;DHT22;2661;50.786;12.728;2022-12-08T11:52:15;4.90;99.90
5276;DHT22;2661;50.786;12.728;2022-12-08T11:54:44;4.90;99.90
5276;DHT22;2661;50.786;12.728;2022-12-08T11:57:13;4.90;99.90
5276;DHT22;2661;50.786;12.728;2022-12-08T11:59:49;5.00;99.90
5276;DHT22;2661;50.786;12.728;2022-12-08T12:02:18;5.00;99.90
5276;DHT22;2661;50.786;12.728;2022-12-08T12:07:23;5.10;99.90
5276;DHT22;2661;50.786;12.728;2022-12-08T12:12:26;5.20;99.90
5276;DHT22;2661;50.786;12.728;2022-12-08T12:20:25;5.10;99.90
5276;DHT22;2661;50.786;12.728;2022-12-08T12:22:59;5.10;99.90
5276;DHT22;2661;50.786;12.728;2022-12-08T12:25:26;5.10;99.90
5276;DHT22;2661;50.786;12.728;2022-12-08T12:27:55;5.00;99.90
5276;DHT22;2661;50.786;12.728;2022-12-08T12:30:24;5.00;99.90
5276;DHT22;2661;50.786;12.728;2022-12-08T12:32:55;5.00;99.90
5276;DHT22;2661;50.786;12.728;2022-12-08T12:37:55;5.10;99.90
5276;DHT22;2661;50.786;12.728;2022-12-08T12:40:23;5.10;99.90
5276;DHT22;2661;50.786;12.728;2022-12-08T12:53:03;4.90;99.90
5276;DHT22;2661;50.786;12.728;2022-12-08T12:58:19;4.90;99.90
5276;DHT22;2661;50.786;12.728;2022-12-08T13:00:45;4.90;99.90
5276;DHT22;2661;50.786;12.728;2022-12-08T13:03:13;4.90;99.90
5276;DHT22;2661;50.786;12.728;2022-12-08T13:05:47;4.90;99.90
5276;DHT22;2661;50.786;12.728;2022-12-08T13:08:19;4.90;99.90
5276;DHT22;2661;50.786;12.728;2022-12-08T13:10:55;4.80;99.90
5276;DHT22;2661;50.786;12.728;2022-12-08T13:13:22;4.80;99.90
5276;DHT22;2661;50.786;12.728;2022-12-08T13:15:50;4.80;99.90
5276;DHT22;2661;50.786;12.728;2022-12-08T13:18:33;4.90;99.90
5276;DHT22;2661;50.786;12.728;2022-12-08T13:21:10;4.90;99.90
5276;DHT22;2661;50.786;12.728;2022-12-08T13:28:34;4.80;99.90
5276;DHT22;2661;50.786;12.728;2022-12-08T13:31:42;4.70;99.90
5276;DHT22;2661;50.786;12.728;2022-12-08T13:34:33;4.70;99.90
5276;DHT22;2661;50.786;12.728;2022-12-08T13:47:26;4.60;99.90
5276;DHT22;2661;50.786;12.728;2022-12-08T13:50:11;4.50;99.90
5276;DHT22;2661;50.786;12.728;2022-12-08T13:53:02;4.60;99.90
5276;DHT22;2661;50.786;12.728;2022-12-08T13:55:55;4.70;99.90
5276;DHT22;2661;50.786;12.728;2022-12-08T13:58:42;4.70;99.90
5276;DHT22;2661;50.786;12.728;2022-12-08T14:01:16;4.90;99.90
5276;DHT22;2661;50.786;12.728;2022-12-08T14:06:37;4.70;99.90
5276;DHT22;2661;50.786;12.728;2022-12-08T14:09:05;4.80;99.90
5276;DHT22;2661;50.786;12.728;2022-12-08T14:11:37;4.70;99.90
5276;DHT22;2661;50.786;12.728;2022-12-08T14:14:21;4.70;99.90
5276;DHT22;2661;50.786;12.728;2022-12-08T14:17:10;4.70;99.90
5276;DHT22;2661;50.786;12.728;2022-12-08T14:19:37;4.70;99.90
5276;DHT22;2661;50.786;12.728;2022-12-08T14:24:33;4.70;99.90
5276;DHT22;2661;50.786;12.728;2022-12-08T14:27:00;4.60;99.90
5276;DHT22;2661;50.786;12.728;2022-12-08T14:29:31;4.60;99.90
5276;DHT22;2661;50.786;12.728;2022-12-08T14:31:58;4.50;99.90
5276;DHT22;2661;50.786;12.728;2022-12-08T14:34:25;4.50;99.90
5276;DHT22;2661;50.786;12.728;2022-12-08T14:36:51;4.40;99.90
5276;DHT22;2661;50.786;12.728;2022-12-08T14:39:18;4.40;99.90
5276;DHT22;2661;50.786;12.728;2022-12-08T14:42:00;4.40;99.90
5276;DHT22;2661;50.786;12.728;2022-12-08T14:44:29;4.50;99.90
5276;DHT22;2661;50.786;12.728;2022-12-08T14:47:06;4.50;99.90
5276;DHT22;2661;50.786;12.728;2022-12-08T14:49:34;4.40;99.90
5276;DHT22;2661;50.786;12.728;2022-12-08T14:52:01;4.30;99.90
5276;DHT22;2661;50.786;12.728;2022-12-08T14:54:28;4.30;99.90
5276;DHT22;2661;50.786;12.728;2022-12-08T14:56:55;4.20;99.90
5276;DHT22;2661;50.786;12.728;2022-12-08T14:59:26;4.30;99.90
5276;DHT22;2661;50.786;12.728;2022-12-08T15:02:12;4.30;99.90
5276;DHT22;2661;50.786;12.728;2022-12-08T15:05:00;4.20;99.90
5276;DHT22;2661;50.786;12.728;2022-12-08T15:07:27;4.20;99.90
5276;DHT22;2661;50.786;12.728;2022-12-08T15:15:22;4.10;99.90
5276;DHT22;2661;50.786;12.728;2022-12-08T15:17:50;4.10;99.90
5276;DHT22;2661;50.786;12.728;2022-12-08T15:23:01;4.10;99.90
5276;DHT22;2661;50.786;12.728;2022-12-08T15:25:27;4.10;99.90
5276;DHT22;2661;50.786;12.728;2022-12-08T15:27:54;4.10;99.90
5276;DHT22;2661;50.786;12.728;2022-12-08T15:30:23;4.10;99.90
5276;DHT22;2661;50.786;12.728;2022-12-08T15:32:52;4.00;99.90
5276;DHT22;2661;50.786;12.728;2022-12-08T15:35:19;4.00;99.90
5276;DHT22;2661;50.786;12.728;2022-12-08T15:37:46;4.10;99.90
5276;DHT22;2661;50.786;12.728;2022-12-08T15:40:18;4.10;99.90
5276;DHT22;2661;50.786;12.728;2022-12-08T15:42:45;4.00;99.90
5276;DHT22;2661;50.786;12.728;2022-12-08T15:45:12;4.00;99.90
5276;DHT22;2661;50.786;12.728;2022-12-08T15:47:42;4.00;99.90
5276;DHT22;2661;50.786;12.728;2022-12-08T15:50:15;4.00;99.90
5276;DHT22;2661;50.786;12.728;2022-12-08T15:52:42;4.00;99.90
5276;DHT22;2661;50.786;12.728;2022-12-08T15:55:12;4.10;99.90
5276;DHT22;2661;50.786;12.728;2022-12-08T15:57:39;4.10;99.90
5276;DHT22;2661;50.786;12.728;2022-12-08T16:00:28;4.10;99.90
5276;DHT22;2661;50.786;12.728;2022-12-08T16:03:26;4.00;99.90
5276;DHT22;2661;50.786;12.728;2022-12-08T16:06:18;4.10;99.90
5276;DHT22;2661;50.786;12.728;2022-12-08T16:09:04;4.00;99.90
5276;DHT22;2661;50.786;12.728;2022-12-08T16:11:38;4.00;99.90
5276;DHT22;2661;50.786;12.728;2022-12-08T16:14:34;4.00;99.90
5276;DHT22;2661;50.786;12.728;2022-12-08T16:17:21;4.00;99.90
5276;DHT22;2661;50.786;12.728;2022-12-08T16:19:47;4.00;99.90
5276;DHT22;2661;50.786;12.728;2022-12-08T16:22:15;4.00;99.90
5276;DHT22;2661;50.786;12.728;2022-12-08T16:25:02;3.90;99.90
5276;DHT22;2661;50.786;12.728;2022-12-08T16:27:56;3.90;99.90
5276;DHT22;2661;50.786;12.728;2022-12-08T16:30:42;4.00;99.90
5276;DHT22;2661;50.786;12.728;2022-12-08T16:33:10;3.90;99.90
5276;DHT22;2661;50.786;12.728;2022-12-08T16:35:37;3.90;99.90
5276;DHT22;2661;50.786;12.728;2022-12-08T16:38:03;3.90;99.90
5276;DHT22;2661;50.786;12.728;2022-12-08T16:40:30;3.90;99.90
5276;DHT22;2661;50.786;12.728;2022-12-08T16:42:57;3.90;99.90
5276;DHT22;2661;50.786;12.728;2022-12-08T16:45:25;3.90;99.90
5276;DHT22;2661;50.786;12.728;2022-12-08T16:47:53;3.90;99.90
5276;DHT22;2661;50.786;12.728;2022-12-08T16:50:24;3.90;99.90
5276;DHT22;2661;50.786;12.728;2022-12-08T16:52:55;3.90;99.90
5276;DHT22;2661;50.786;12.728;2022-12-08T16:55:22;3.90;99.90
5276;DHT22;2661;50.786;12.728;2022-12-08T16:57:49;3.90;99.90
5276;DHT22;2661;50.786;12.728;2022-12-08T17:00:19;4.00;99.90
5276;DHT22;2661;50.786;12.728;2022-12-08T17:02:46;3.90;99.90
5276;DHT22;2661;50.786;12.728;2022-12-08T17:05:13;3.80;99.90
5276;DHT22;2661;50.786;12.728;2022-12-08T17:07:41;3.80;99.90
5276;DHT22;2661;50.786;12.728;2022-12-08T17:10:09;3.90;99.90
5276;DHT22;2661;50.786;12.728;2022-12-08T17:12:36;3.80;99.90
5276;DHT22;2661;50.786;12.728;2022-12-08T17:15:07;3.80;99.90
5276;DHT22;2661;50.786;12.728;2022-12-08T17:17:35;3.70;99.90
5276;DHT22;2661;50.786;12.728;2022-12-08T17:20:02;3.70;99.90
5276;DHT22;2661;50.786;12.728;2022-12-08T17:22:33;3.60;99.90
5276;DHT22;2661;50.786;12.728;2022-12-08T17:24:59;3.70;99.90
5276;DHT22;2661;50.786;12.728;2022-12-08T17:27:26;3.70;99.90
5276;DHT22;2661;50.786;12.728;2022-12-08T17:29:53;3.60;99.90
5276;DHT22;2661;50.786;12.728;2022-12-08T17:32:19;3.60;99.90
5276;DHT22;2661;50.786;12.728;2022-12-08T17:34:46;3.60;99.90
5276;DHT22;2661;50.786;12.728;2022-12-08T17:37:13;3.60;99.90
5276;DHT22;2661;50.786;12.728;2022-12-08T17:39:39;3.70;99.90
5276;DHT22;2661;50.786;12.728;2022-12-08T17:42:06;3.70;99.90
5276;DHT22;2661;50.786;12.728;2022-12-08T17:44:33;3.80;99.90
5276;DHT22;2661;50.786;12.728;2022-12-08T17:47:00;3.80;99.90
5276;DHT22;2661;50.786;12.728;2022-12-08T17:49:28;3.80;99.90